sensor_id;sensor_type;location;lat;lon;timestamp;P1;durP1;ratioP1;P2;durP2;ratioP2
51985;SDS011;38002;53.296;6.600;2023-05-06T00:03:38;10.33;;;7.33;;
51985;SDS011;38002;53.296;6.600;2023-05-06T00:08:39;11.23;;;8.50;;
51985;SDS011;38002;53.296;6.600;2023-05-06T00:13:40;9.37;;;7.13;;
51985;SDS011;38002;53.296;6.600;2023-05-06T00:18:40;10.65;;;8.23;;
51985;SDS011;38002;53.296;6.600;2023-05-06T00:23:41;8.60;;;7.13;;
51985;SDS011;38002;53.296;6.600;2023-05-06T00:28:41;10.82;;;8.93;;
51985;SDS011;38002;53.296;6.600;2023-05-06T00:33:42;8.63;;;6.57;;
51985;SDS011;38002;53.296;6.600;2023-05-06T00:38:43;10.97;;;9.20;;
51985;SDS011;38002;53.296;6.600;2023-05-06T00:43:43;10.60;;;7.07;;
51985;SDS011;38002;53.296;6.600;2023-05-06T00:48:44;10.93;;;8.13;;
51985;SDS011;38002;53.296;6.600;2023-05-06T00:53:45;11.50;;;8.50;;
51985;SDS011;38002;53.296;6.600;2023-05-06T00:58:45;10.85;;;7.22;;
51985;SDS011;38002;53.296;6.600;2023-05-06T01:03:47;9.80;;;8.23;;
51985;SDS011;38002;53.296;6.600;2023-05-06T01:08:56;10.68;;;8.13;;
51985;SDS011;38002;53.296;6.600;2023-05-06T01:19:40;14.10;;;9.55;;
51985;SDS011;38002;53.296;6.600;2023-05-06T01:24:45;13.07;;;9.60;;
51985;SDS011;38002;53.296;6.600;2023-05-06T01:29:46;17.00;;;10.05;;
51985;SDS011;38002;53.296;6.600;2023-05-06T01:40:13;10.48;;;8.45;;
51985;SDS011;38002;53.296;6.600;2023-05-06T01:45:15;12.25;;;7.45;;
51985;SDS011;38002;53.296;6.600;2023-05-06T01:50:17;8.63;;;7.75;;
51985;SDS011;38002;53.296;6.600;2023-05-06T01:55:18;10.50;;;9.40;;
51985;SDS011;38002;53.296;6.600;2023-05-06T02:00:19;10.20;;;8.50;;
51985;SDS011;38002;53.296;6.600;2023-05-06T02:05:19;10.18;;;7.43;;
51985;SDS011;38002;53.296;6.600;2023-05-06T02:10:20;11.17;;;8.47;;
51985;SDS011;38002;53.296;6.600;2023-05-06T02:15:20;9.10;;;8.20;;
51985;SDS011;38002;53.296;6.600;2023-05-06T02:20:21;8.70;;;7.63;;
51985;SDS011;38002;53.296;6.600;2023-05-06T02:25:22;10.63;;;7.90;;
51985;SDS011;38002;53.296;6.600;2023-05-06T02:30:22;8.95;;;7.47;;
51985;SDS011;38002;53.296;6.600;2023-05-06T02:35:23;9.30;;;6.82;;
51985;SDS011;38002;53.296;6.600;2023-05-06T02:40:23;7.80;;;7.00;;
51985;SDS011;38002;53.296;6.600;2023-05-06T02:45:24;8.60;;;7.10;;
51985;SDS011;38002;53.296;6.600;2023-05-06T02:50:24;7.97;;;7.25;;
51985;SDS011;38002;53.296;6.600;2023-05-06T02:55:25;11.07;;;6.07;;
51985;SDS011;38002;53.296;6.600;2023-05-06T03:00:25;6.97;;;6.07;;
51985;SDS011;38002;53.296;6.600;2023-05-06T03:05:25;8.68;;;6.60;;
51985;SDS011;38002;53.296;6.600;2023-05-06T03:10:26;12.27;;;7.57;;
51985;SDS011;38002;53.296;6.600;2023-05-06T03:15:26;11.43;;;6.68;;
51985;SDS011;38002;53.296;6.600;2023-05-06T03:20:27;8.35;;;7.47;;
51985;SDS011;38002;53.296;6.600;2023-05-06T03:25:28;8.45;;;7.25;;
51985;SDS011;38002;53.296;6.600;2023-05-06T03:30:28;7.28;;;6.57;;
51985;SDS011;38002;53.296;6.600;2023-05-06T03:35:28;10.13;;;6.95;;
51985;SDS011;38002;53.296;6.600;2023-05-06T03:40:29;10.18;;;7.07;;
51985;SDS011;38002;53.296;6.600;2023-05-06T03:45:30;7.45;;;6.75;;
51985;SDS011;38002;53.296;6.600;2023-05-06T03:50:30;7.87;;;6.20;;
51985;SDS011;38002;53.296;6.600;2023-05-06T03:55:31;7.47;;;6.50;;
51985;SDS011;38002;53.296;6.600;2023-05-06T04:00:31;7.28;;;6.57;;
51985;SDS011;38002;53.296;6.600;2023-05-06T04:05:32;8.48;;;6.70;;
51985;SDS011;38002;53.296;6.600;2023-05-06T04:10:36;8.68;;;6.90;;
51985;SDS011;38002;53.296;6.600;2023-05-06T04:15:37;6.95;;;6.35;;
51985;SDS011;38002;53.296;6.600;2023-05-06T04:20:38;7.65;;;6.47;;
51985;SDS011;38002;53.296;6.600;2023-05-06T04:25:38;7.82;;;6.90;;
51985;SDS011;38002;53.296;6.600;2023-05-06T04:30:44;11.68;;;7.00;;
51985;SDS011;38002;53.296;6.600;2023-05-06T04:35:49;5.60;;;5.10;;
51985;SDS011;38002;53.296;6.600;2023-05-06T04:40:52;7.65;;;6.85;;
51985;SDS011;38002;53.296;6.600;2023-05-06T04:45:53;6.97;;;6.28;;
51985;SDS011;38002;53.296;6.600;2023-05-06T04:50:54;8.30;;;7.50;;
51985;SDS011;38002;53.296;6.600;2023-05-06T04:55:54;6.15;;;5.65;;
51985;SDS011;38002;53.296;6.600;2023-05-06T05:00:55;7.32;;;6.72;;
51985;SDS011;38002;53.296;6.600;2023-05-06T05:05:56;7.63;;;6.93;;
51985;SDS011;38002;53.296;6.600;2023-05-06T05:10:57;8.88;;;7.07;;
51985;SDS011;38002;53.296;6.600;2023-05-06T05:15:57;7.25;;;6.38;;
51985;SDS011;38002;53.296;6.600;2023-05-06T05:20:57;6.85;;;6.25;;
51985;SDS011;38002;53.296;6.600;2023-05-06T05:25:58;7.15;;;6.47;;
51985;SDS011;38002;53.296;6.600;2023-05-06T05:31:02;8.25;;;7.50;;
51985;SDS011;38002;53.296;6.600;2023-05-06T05:36:03;5.63;;;5.10;;
51985;SDS011;38002;53.296;6.600;2023-05-06T05:41:04;7.97;;;7.18;;
51985;SDS011;38002;53.296;6.600;2023-05-06T05:46:04;6.63;;;6.00;;
51985;SDS011;38002;53.296;6.600;2023-05-06T05:51:05;7.18;;;6.47;;
51985;SDS011;38002;53.296;6.600;2023-05-06T05:56:05;7.87;;;7.13;;
51985;SDS011;38002;53.296;6.600;2023-05-06T06:01:06;11.70;;;7.57;;
51985;SDS011;38002;53.296;6.600;2023-05-06T06:06:07;8.52;;;6.40;;
51985;SDS011;38002;53.296;6.600;2023-05-06T06:11:08;8.45;;;7.50;;
51985;SDS011;38002;53.296;6.600;2023-05-06T06:16:11;8.73;;;6.35;;
51985;SDS011;38002;53.296;6.600;2023-05-06T06:21:12;8.23;;;7.28;;
51985;SDS011;38002;53.296;6.600;2023-05-06T06:26:12;9.23;;;8.27;;
51985;SDS011;38002;53.296;6.600;2023-05-06T06:31:13;8.88;;;7.38;;
51985;SDS011;38002;53.296;6.600;2023-05-06T06:36:13;12.50;;;8.57;;
51985;SDS011;38002;53.296;6.600;2023-05-06T06:41:13;11.93;;;8.97;;
51985;SDS011;38002;53.296;6.600;2023-05-06T06:46:14;12.75;;;10.13;;
51985;SDS011;38002;53.296;6.600;2023-05-06T06:51:14;17.88;;;8.95;;
51985;SDS011;38002;53.296;6.600;2023-05-06T06:56:15;9.27;;;7.75;;
51985;SDS011;38002;53.296;6.600;2023-05-06T07:01:15;11.93;;;9.57;;
51985;SDS011;38002;53.296;6.600;2023-05-06T07:06:16;13.97;;;10.17;;
51985;SDS011;38002;53.296;6.600;2023-05-06T07:11:16;15.30;;;10.47;;
51985;SDS011;38002;53.296;6.600;2023-05-06T07:16:17;13.43;;;10.27;;
51985;SDS011;38002;53.296;6.600;2023-05-06T07:21:18;12.53;;;9.57;;
51985;SDS011;38002;53.296;6.600;2023-05-06T07:26:21;12.32;;;8.90;;
51985;SDS011;38002;53.296;6.600;2023-05-06T07:31:22;12.90;;;9.20;;
51985;SDS011;38002;53.296;6.600;2023-05-06T07:36:22;10.10;;;8.97;;
51985;SDS011;38002;53.296;6.600;2023-05-06T07:41:23;16.37;;;10.73;;
51985;SDS011;38002;53.296;6.600;2023-05-06T07:46:24;13.77;;;10.82;;
51985;SDS011;38002;53.296;6.600;2023-05-06T07:51:24;12.70;;;8.70;;
51985;SDS011;38002;53.296;6.600;2023-05-06T07:56:26;17.33;;;11.63;;
51985;SDS011;38002;53.296;6.600;2023-05-06T08:01:26;16.97;;;8.67;;
51985;SDS011;38002;53.296;6.600;2023-05-06T08:06:28;13.70;;;9.98;;
51985;SDS011;38002;53.296;6.600;2023-05-06T08:11:28;14.73;;;10.80;;
51985;SDS011;38002;53.296;6.600;2023-05-06T08:16:29;10.07;;;7.70;;
51985;SDS011;38002;53.296;6.600;2023-05-06T08:21:29;15.30;;;10.80;;
51985;SDS011;38002;53.296;6.600;2023-05-06T08:26:29;11.53;;;8.67;;
51985;SDS011;38002;53.296;6.600;2023-05-06T08:31:30;15.43;;;9.10;;
51985;SDS011;38002;53.296;6.600;2023-05-06T08:36:30;14.23;;;8.13;;
51985;SDS011;38002;53.296;6.600;2023-05-06T08:41:31;15.00;;;10.53;;
51985;SDS011;38002;53.296;6.600;2023-05-06T08:46:33;6.68;;;5.97;;
51985;SDS011;38002;53.296;6.600;2023-05-06T08:51:34;8.83;;;5.97;;
51985;SDS011;38002;53.296;6.600;2023-05-06T08:56:37;8.95;;;7.65;;
51985;SDS011;38002;53.296;6.600;2023-05-06T09:01:40;12.00;;;7.10;;
51985;SDS011;38002;53.296;6.600;2023-05-06T09:06:40;13.33;;;8.70;;
51985;SDS011;38002;53.296;6.600;2023-05-06T09:11:41;7.83;;;7.10;;
51985;SDS011;38002;53.296;6.600;2023-05-06T09:16:45;7.23;;;6.10;;
51985;SDS011;38002;53.296;6.600;2023-05-06T09:21:47;10.43;;;6.85;;
51985;SDS011;38002;53.296;6.600;2023-05-06T09:26:49;7.97;;;5.95;;
51985;SDS011;38002;53.296;6.600;2023-05-06T09:31:54;6.65;;;6.05;;
51985;SDS011;38002;53.296;6.600;2023-05-06T09:36:55;6.10;;;5.50;;
51985;SDS011;38002;53.296;6.600;2023-05-06T09:41:56;4.70;;;4.25;;
51985;SDS011;38002;53.296;6.600;2023-05-06T09:46:57;8.13;;;6.37;;
51985;SDS011;38002;53.296;6.600;2023-05-06T09:51:58;8.57;;;5.65;;
51985;SDS011;38002;53.296;6.600;2023-05-06T09:56:59;9.85;;;6.18;;
51985;SDS011;38002;53.296;6.600;2023-05-06T10:02:01;5.80;;;5.28;;
51985;SDS011;38002;53.296;6.600;2023-05-06T10:07:03;7.25;;;6.22;;
51985;SDS011;38002;53.296;6.600;2023-05-06T10:12:07;6.85;;;5.97;;
51985;SDS011;38002;53.296;6.600;2023-05-06T10:17:10;8.43;;;6.80;;
51985;SDS011;38002;53.296;6.600;2023-05-06T10:22:18;7.82;;;6.97;;
51985;SDS011;38002;53.296;6.600;2023-05-06T10:27:29;9.43;;;6.20;;
51985;SDS011;38002;53.296;6.600;2023-05-06T10:32:34;6.15;;;5.55;;
51985;SDS011;38002;53.296;6.600;2023-05-06T10:37:40;10.65;;;6.80;;
51985;SDS011;38002;53.296;6.600;2023-05-06T10:42:43;14.93;;;7.78;;
51985;SDS011;38002;53.296;6.600;2023-05-06T10:52:57;7.20;;;6.32;;
51985;SDS011;38002;53.296;6.600;2023-05-06T11:03:11;11.85;;;8.43;;
51985;SDS011;38002;53.296;6.600;2023-05-06T11:08:12;8.48;;;6.35;;
51985;SDS011;38002;53.296;6.600;2023-05-06T11:13:22;7.60;;;6.90;;
51985;SDS011;38002;53.296;6.600;2023-05-06T11:24:07;5.93;;;5.15;;
51985;SDS011;38002;53.296;6.600;2023-05-06T11:28:49;7.47;;;6.63;;
51985;SDS011;38002;53.296;6.600;2023-05-06T11:33:50;6.75;;;6.03;;
51985;SDS011;38002;53.296;6.600;2023-05-06T11:38:52;5.70;;;5.20;;
51985;SDS011;38002;53.296;6.600;2023-05-06T11:43:53;6.70;;;6.10;;
51985;SDS011;38002;53.296;6.600;2023-05-06T11:48:53;8.57;;;7.03;;
51985;SDS011;38002;53.296;6.600;2023-05-06T11:54:07;7.70;;;6.00;;
51985;SDS011;38002;53.296;6.600;2023-05-06T11:59:09;9.23;;;6.57;;
51985;SDS011;38002;53.296;6.600;2023-05-06T12:04:10;8.73;;;7.83;;
51985;SDS011;38002;53.296;6.600;2023-05-06T12:09:11;8.13;;;6.32;;
51985;SDS011;38002;53.296;6.600;2023-05-06T12:14:12;11.70;;;7.50;;
51985;SDS011;38002;53.296;6.600;2023-05-06T12:19:16;9.38;;;7.88;;
51985;SDS011;38002;53.296;6.600;2023-05-06T12:24:25;10.00;;;9.00;;
51985;SDS011;38002;53.296;6.600;2023-05-06T12:29:28;10.63;;;8.50;;
51985;SDS011;38002;53.296;6.600;2023-05-06T12:34:38;8.73;;;7.53;;
51985;SDS011;38002;53.296;6.600;2023-05-06T12:39:39;9.57;;;8.57;;
51985;SDS011;38002;53.296;6.600;2023-05-06T12:44:40;11.17;;;7.07;;
51985;SDS011;38002;53.296;6.600;2023-05-06T12:49:51;12.80;;;9.57;;
51985;SDS011;38002;53.296;6.600;2023-05-06T12:54:53;11.00;;;9.00;;
51985;SDS011;38002;53.296;6.600;2023-05-06T12:59:53;11.20;;;8.50;;
51985;SDS011;38002;53.296;6.600;2023-05-06T13:04:55;16.75;;;9.13;;
51985;SDS011;38002;53.296;6.600;2023-05-06T13:09:55;11.70;;;9.53;;
51985;SDS011;38002;53.296;6.600;2023-05-06T13:14:56;9.70;;;7.20;;
51985;SDS011;38002;53.296;6.600;2023-05-06T13:19:57;11.83;;;8.17;;
51985;SDS011;38002;53.296;6.600;2023-05-06T13:24:58;12.27;;;9.70;;
51985;SDS011;38002;53.296;6.600;2023-05-06T13:29:58;12.10;;;9.67;;
51985;SDS011;38002;53.296;6.600;2023-05-06T13:34:58;13.23;;;9.20;;
51985;SDS011;38002;53.296;6.600;2023-05-06T13:39:59;12.80;;;9.60;;
51985;SDS011;38002;53.296;6.600;2023-05-06T13:44:59;11.13;;;9.50;;
51985;SDS011;38002;53.296;6.600;2023-05-06T13:50:00;14.37;;;9.73;;
51985;SDS011;38002;53.296;6.600;2023-05-06T13:55:02;11.60;;;9.93;;
51985;SDS011;38002;53.296;6.600;2023-05-06T14:06:42;12.30;;;10.70;;
51985;SDS011;38002;53.296;6.600;2023-05-06T14:11:43;14.00;;;12.17;;
51985;SDS011;38002;53.296;6.600;2023-05-06T14:16:43;14.77;;;10.77;;
51985;SDS011;38002;53.296;6.600;2023-05-06T14:21:43;12.27;;;9.87;;
51985;SDS011;38002;53.296;6.600;2023-05-06T14:26:44;13.40;;;10.87;;
51985;SDS011;38002;53.296;6.600;2023-05-06T14:31:45;13.97;;;10.93;;
51985;SDS011;38002;53.296;6.600;2023-05-06T14:36:45;15.30;;;11.87;;
51985;SDS011;38002;53.296;6.600;2023-05-06T14:41:46;11.97;;;9.37;;
51985;SDS011;38002;53.296;6.600;2023-05-06T14:46:46;15.70;;;11.63;;
51985;SDS011;38002;53.296;6.600;2023-05-06T14:51:47;12.23;;;10.40;;
51985;SDS011;38002;53.296;6.600;2023-05-06T14:56:50;12.70;;;11.02;;
51985;SDS011;38002;53.296;6.600;2023-05-06T15:01:51;8.97;;;8.13;;
51985;SDS011;38002;53.296;6.600;2023-05-06T15:06:51;20.37;;;12.80;;
51985;SDS011;38002;53.296;6.600;2023-05-06T15:11:52;8.45;;;7.43;;
51985;SDS011;38002;53.296;6.600;2023-05-06T15:16:56;8.03;;;7.23;;
51985;SDS011;38002;53.296;6.600;2023-05-06T15:21:56;7.63;;;6.80;;
51985;SDS011;38002;53.296;6.600;2023-05-06T15:26:58;7.85;;;6.88;;
51985;SDS011;38002;53.296;6.600;2023-05-06T15:31:59;7.07;;;6.18;;
51985;SDS011;38002;53.296;6.600;2023-05-06T15:37:00;5.40;;;4.00;;
51985;SDS011;38002;53.296;6.600;2023-05-06T15:42:01;4.10;;;3.70;;
51985;SDS011;38002;53.296;6.600;2023-05-06T15:47:01;6.20;;;5.17;;
51985;SDS011;38002;53.296;6.600;2023-05-06T15:52:02;4.13;;;3.73;;
51985;SDS011;38002;53.296;6.600;2023-05-06T15:57:02;6.53;;;5.87;;
51985;SDS011;38002;53.296;6.600;2023-05-06T16:02:06;7.18;;;6.15;;
51985;SDS011;38002;53.296;6.600;2023-05-06T16:07:06;6.60;;;5.20;;
51985;SDS011;38002;53.296;6.600;2023-05-06T16:12:07;4.33;;;3.93;;
51985;SDS011;38002;53.296;6.600;2023-05-06T16:17:08;4.57;;;3.80;;
51985;SDS011;38002;53.296;6.600;2023-05-06T16:22:09;6.93;;;4.67;;
51985;SDS011;38002;53.296;6.600;2023-05-06T16:27:09;5.90;;;5.00;;
51985;SDS011;38002;53.296;6.600;2023-05-06T16:32:10;5.17;;;4.67;;
51985;SDS011;38002;53.296;6.600;2023-05-06T16:37:10;7.20;;;3.73;;
51985;SDS011;38002;53.296;6.600;2023-05-06T16:47:12;7.70;;;6.90;;
51985;SDS011;38002;53.296;6.600;2023-05-06T16:52:13;12.50;;;8.03;;
51985;SDS011;38002;53.296;6.600;2023-05-06T16:57:14;9.43;;;7.80;;
51985;SDS011;38002;53.296;6.600;2023-05-06T17:02:14;8.40;;;7.57;;
51985;SDS011;38002;53.296;6.600;2023-05-06T17:07:15;9.33;;;7.23;;
51985;SDS011;38002;53.296;6.600;2023-05-06T17:12:15;9.43;;;6.97;;
51985;SDS011;38002;53.296;6.600;2023-05-06T17:17:15;10.70;;;7.07;;
51985;SDS011;38002;53.296;6.600;2023-05-06T17:22:16;7.30;;;5.73;;
51985;SDS011;38002;53.296;6.600;2023-05-06T17:27:16;6.20;;;5.60;;
51985;SDS011;38002;53.296;6.600;2023-05-06T17:32:17;7.60;;;5.57;;
51985;SDS011;38002;53.296;6.600;2023-05-06T17:37:18;6.18;;;5.45;;
51985;SDS011;38002;53.296;6.600;2023-05-06T17:42:19;6.93;;;5.53;;
51985;SDS011;38002;53.296;6.600;2023-05-06T17:47:19;8.73;;;5.37;;
51985;SDS011;38002;53.296;6.600;2023-05-06T17:52:22;6.55;;;4.63;;
51985;SDS011;38002;53.296;6.600;2023-05-06T17:57:24;5.25;;;4.75;;
51985;SDS011;38002;53.296;6.600;2023-05-06T18:02:24;5.23;;;3.70;;
51985;SDS011;38002;53.296;6.600;2023-05-06T18:07:24;3.70;;;3.40;;
51985;SDS011;38002;53.296;6.600;2023-05-06T18:12:25;7.20;;;5.23;;
51985;SDS011;38002;53.296;6.600;2023-05-06T18:17:26;6.67;;;4.97;;
51985;SDS011;38002;53.296;6.600;2023-05-06T18:22:26;6.87;;;6.17;;
51985;SDS011;38002;53.296;6.600;2023-05-06T18:27:27;11.43;;;7.87;;
51985;SDS011;38002;53.296;6.600;2023-05-06T18:32:28;15.15;;;8.88;;
51985;SDS011;38002;53.296;6.600;2023-05-06T18:37:30;10.80;;;7.95;;
51985;SDS011;38002;53.296;6.600;2023-05-06T18:42:30;13.13;;;8.40;;
51985;SDS011;38002;53.296;6.600;2023-05-06T18:47:31;11.10;;;8.23;;
51985;SDS011;38002;53.296;6.600;2023-05-06T18:52:32;12.80;;;7.80;;
51985;SDS011;38002;53.296;6.600;2023-05-06T18:57:32;11.70;;;8.67;;
51985;SDS011;38002;53.296;6.600;2023-05-06T19:02:33;11.30;;;7.70;;
51985;SDS011;38002;53.296;6.600;2023-05-06T19:07:33;14.77;;;7.83;;
51985;SDS011;38002;53.296;6.600;2023-05-06T19:12:34;11.63;;;7.50;;
51985;SDS011;38002;53.296;6.600;2023-05-06T19:17:34;13.47;;;9.70;;
51985;SDS011;38002;53.296;6.600;2023-05-06T19:22:35;12.23;;;9.47;;
51985;SDS011;38002;53.296;6.600;2023-05-06T19:27:35;16.00;;;9.07;;
51985;SDS011;38002;53.296;6.600;2023-05-06T19:32:36;14.47;;;7.93;;
51985;SDS011;38002;53.296;6.600;2023-05-06T19:37:37;9.37;;;6.90;;
51985;SDS011;38002;53.296;6.600;2023-05-06T19:42:37;9.30;;;8.40;;
51985;SDS011;38002;53.296;6.600;2023-05-06T19:47:38;15.37;;;9.93;;
51985;SDS011;38002;53.296;6.600;2023-05-06T19:52:38;14.57;;;8.97;;
51985;SDS011;38002;53.296;6.600;2023-05-06T19:57:39;14.30;;;8.13;;
51985;SDS011;38002;53.296;6.600;2023-05-06T20:02:39;11.37;;;8.43;;
51985;SDS011;38002;53.296;6.600;2023-05-06T20:07:40;11.37;;;9.00;;
51985;SDS011;38002;53.296;6.600;2023-05-06T20:12:41;11.23;;;7.67;;
51985;SDS011;38002;53.296;6.600;2023-05-06T20:17:41;14.57;;;9.83;;
51985;SDS011;38002;53.296;6.600;2023-05-06T20:22:42;16.03;;;9.57;;
51985;SDS011;38002;53.296;6.600;2023-05-06T20:27:43;17.80;;;11.33;;
51985;SDS011;38002;53.296;6.600;2023-05-06T20:32:44;16.20;;;10.00;;
51985;SDS011;38002;53.296;6.600;2023-05-06T20:37:45;20.37;;;12.77;;
51985;SDS011;38002;53.296;6.600;2023-05-06T20:42:46;12.40;;;10.03;;
51985;SDS011;38002;53.296;6.600;2023-05-06T20:47:46;12.77;;;8.57;;
51985;SDS011;38002;53.296;6.600;2023-05-06T20:52:47;13.77;;;10.43;;
51985;SDS011;38002;53.296;6.600;2023-05-06T20:57:47;9.20;;;8.20;;
51985;SDS011;38002;53.296;6.600;2023-05-06T21:02:48;12.90;;;10.50;;
51985;SDS011;38002;53.296;6.600;2023-05-06T21:07:49;11.20;;;10.00;;
51985;SDS011;38002;53.296;6.600;2023-05-06T21:12:50;12.00;;;10.13;;
51985;SDS011;38002;53.296;6.600;2023-05-06T21:17:50;12.40;;;9.87;;
51985;SDS011;38002;53.296;6.600;2023-05-06T21:22:51;15.07;;;11.10;;
51985;SDS011;38002;53.296;6.600;2023-05-06T21:27:51;16.70;;;12.83;;
51985;SDS011;38002;53.296;6.600;2023-05-06T21:32:51;16.43;;;11.77;;
51985;SDS011;38002;53.296;6.600;2023-05-06T21:37:52;17.70;;;12.77;;
51985;SDS011;38002;53.296;6.600;2023-05-06T21:42:52;13.37;;;10.13;;
51985;SDS011;38002;53.296;6.600;2023-05-06T21:47:53;24.38;;;11.73;;
51985;SDS011;38002;53.296;6.600;2023-05-06T21:52:53;18.93;;;12.57;;
51985;SDS011;38002;53.296;6.600;2023-05-06T21:57:54;15.75;;;10.80;;
51985;SDS011;38002;53.296;6.600;2023-05-06T22:02:54;22.17;;;13.90;;
51985;SDS011;38002;53.296;6.600;2023-05-06T22:07:55;17.40;;;12.13;;
51985;SDS011;38002;53.296;6.600;2023-05-06T22:12:56;17.10;;;11.93;;
51985;SDS011;38002;53.296;6.600;2023-05-06T22:17:57;19.77;;;12.77;;
51985;SDS011;38002;53.296;6.600;2023-05-06T22:22:58;20.93;;;15.17;;
51985;SDS011;38002;53.296;6.600;2023-05-06T22:27:58;18.30;;;12.93;;
51985;SDS011;38002;53.296;6.600;2023-05-06T22:32:59;18.65;;;13.88;;
51985;SDS011;38002;53.296;6.600;2023-05-06T22:37:59;21.10;;;14.77;;
51985;SDS011;38002;53.296;6.600;2023-05-06T22:42:59;19.77;;;14.10;;
51985;SDS011;38002;53.296;6.600;2023-05-06T22:48:00;19.33;;;13.40;;
51985;SDS011;38002;53.296;6.600;2023-05-06T22:53:00;22.13;;;13.57;;
51985;SDS011;38002;53.296;6.600;2023-05-06T22:58:01;19.85;;;13.15;;
51985;SDS011;38002;53.296;6.600;2023-05-06T23:03:01;22.43;;;13.60;;
51985;SDS011;38002;53.296;6.600;2023-05-06T23:08:02;26.23;;;14.40;;
51985;SDS011;38002;53.296;6.600;2023-05-06T23:13:02;19.38;;;14.05;;
51985;SDS011;38002;53.296;6.600;2023-05-06T23:18:03;20.98;;;13.88;;
51985;SDS011;38002;53.296;6.600;2023-05-06T23:23:03;25.87;;;16.03;;
51985;SDS011;38002;53.296;6.600;2023-05-06T23:28:04;20.65;;;13.15;;
51985;SDS011;38002;53.296;6.600;2023-05-06T23:33:04;25.67;;;15.50;;
51985;SDS011;38002;53.296;6.600;2023-05-06T23:38:06;19.67;;;14.85;;
51985;SDS011;38002;53.296;6.600;2023-05-06T23:43:06;19.20;;;13.88;;
51985;SDS011;38002;53.296;6.600;2023-05-06T23:48:08;19.80;;;12.98;;
51985;SDS011;38002;53.296;6.600;2023-05-06T23:53:09;19.48;;;13.02;;
51985;SDS011;38002;53.296;6.600;2023-05-06T23:58:10;25.83;;;14.50;;
